sensor_id;sensor_type;location;lat;lon;timestamp;P1;durP1;ratioP1;P2;durP2;ratioP2
51578;SDS011;47998;53.242;6.386;2023-07-24T00:00:07;11.85;;;6.40;;
51578;SDS011;47998;53.242;6.386;2023-07-24T00:02:33;10.43;;;6.20;;
51578;SDS011;47998;53.242;6.386;2023-07-24T00:04:59;12.15;;;6.18;;
51578;SDS011;47998;53.242;6.386;2023-07-24T00:07:24;7.35;;;4.43;;
51578;SDS011;47998;53.242;6.386;2023-07-24T00:09:50;11.27;;;6.03;;
51578;SDS011;47998;53.242;6.386;2023-07-24T00:12:16;10.43;;;5.60;;
51578;SDS011;47998;53.242;6.386;2023-07-24T00:14:42;11.77;;;7.15;;
51578;SDS011;47998;53.242;6.386;2023-07-24T00:17:07;8.75;;;4.43;;
51578;SDS011;47998;53.242;6.386;2023-07-24T00:19:33;10.93;;;4.90;;
51578;SDS011;47998;53.242;6.386;2023-07-24T00:21:59;12.95;;;6.05;;
51578;SDS011;47998;53.242;6.386;2023-07-24T00:24:24;11.07;;;5.38;;
51578;SDS011;47998;53.242;6.386;2023-07-24T00:26:50;9.27;;;5.40;;
51578;SDS011;47998;53.242;6.386;2023-07-24T00:29:16;7.82;;;5.20;;
51578;SDS011;47998;53.242;6.386;2023-07-24T00:31:44;11.02;;;5.20;;
51578;SDS011;47998;53.242;6.386;2023-07-24T00:34:10;10.35;;;5.45;;
51578;SDS011;47998;53.242;6.386;2023-07-24T00:36:35;9.23;;;5.03;;
51578;SDS011;47998;53.242;6.386;2023-07-24T00:39:03;11.40;;;5.45;;
51578;SDS011;47998;53.242;6.386;2023-07-24T00:41:29;12.23;;;6.10;;
51578;SDS011;47998;53.242;6.386;2023-07-24T00:43:54;12.82;;;5.63;;
51578;SDS011;47998;53.242;6.386;2023-07-24T00:46:20;10.07;;;5.43;;
51578;SDS011;47998;53.242;6.386;2023-07-24T00:48:48;10.63;;;5.40;;
51578;SDS011;47998;53.242;6.386;2023-07-24T00:51:14;9.90;;;5.03;;
51578;SDS011;47998;53.242;6.386;2023-07-24T00:53:41;12.30;;;4.88;;
51578;SDS011;47998;53.242;6.386;2023-07-24T00:56:13;14.40;;;5.55;;
51578;SDS011;47998;53.242;6.386;2023-07-24T00:58:39;13.57;;;5.68;;
51578;SDS011;47998;53.242;6.386;2023-07-24T01:01:07;14.52;;;6.43;;
51578;SDS011;47998;53.242;6.386;2023-07-24T01:03:35;14.45;;;5.97;;
51578;SDS011;47998;53.242;6.386;2023-07-24T01:06:02;12.10;;;5.80;;
51578;SDS011;47998;53.242;6.386;2023-07-24T01:08:29;12.35;;;5.85;;
51578;SDS011;47998;53.242;6.386;2023-07-24T01:11:00;11.82;;;6.32;;
51578;SDS011;47998;53.242;6.386;2023-07-24T01:14:07;12.30;;;6.10;;
51578;SDS011;47998;53.242;6.386;2023-07-24T01:16:36;17.95;;;7.90;;
51578;SDS011;47998;53.242;6.386;2023-07-24T01:19:10;13.73;;;5.97;;
51578;SDS011;47998;53.242;6.386;2023-07-24T01:22:14;17.05;;;6.88;;
51578;SDS011;47998;53.242;6.386;2023-07-24T01:25:32;14.05;;;6.90;;
51578;SDS011;47998;53.242;6.386;2023-07-24T01:27:42;14.25;;;6.20;;
51578;SDS011;47998;53.242;6.386;2023-07-24T01:30:11;17.00;;;7.50;;
51578;SDS011;47998;53.242;6.386;2023-07-24T01:32:39;17.23;;;8.00;;
51578;SDS011;47998;53.242;6.386;2023-07-24T01:35:05;12.80;;;6.72;;
51578;SDS011;47998;53.242;6.386;2023-07-24T01:37:31;13.85;;;7.95;;
51578;SDS011;47998;53.242;6.386;2023-07-24T01:39:58;9.75;;;6.65;;
51578;SDS011;47998;53.242;6.386;2023-07-24T01:42:25;12.82;;;8.95;;
51578;SDS011;47998;53.242;6.386;2023-07-24T01:44:54;12.35;;;7.10;;
51578;SDS011;47998;53.242;6.386;2023-07-24T01:47:21;14.90;;;8.30;;
51578;SDS011;47998;53.242;6.386;2023-07-24T01:49:47;13.98;;;8.23;;
51578;SDS011;47998;53.242;6.386;2023-07-24T01:52:12;13.00;;;8.20;;
51578;SDS011;47998;53.242;6.386;2023-07-24T01:54:38;15.35;;;8.82;;
51578;SDS011;47998;53.242;6.386;2023-07-24T01:57:04;11.20;;;7.70;;
51578;SDS011;47998;53.242;6.386;2023-07-24T01:59:30;17.60;;;9.20;;
51578;SDS011;47998;53.242;6.386;2023-07-24T02:01:56;15.15;;;8.82;;
51578;SDS011;47998;53.242;6.386;2023-07-24T02:04:21;17.10;;;10.07;;
51578;SDS011;47998;53.242;6.386;2023-07-24T02:06:50;16.75;;;9.00;;
51578;SDS011;47998;53.242;6.386;2023-07-24T02:09:17;17.60;;;9.60;;
51578;SDS011;47998;53.242;6.386;2023-07-24T02:11:43;16.90;;;8.98;;
51578;SDS011;47998;53.242;6.386;2023-07-24T02:14:12;18.98;;;9.60;;
51578;SDS011;47998;53.242;6.386;2023-07-24T02:16:39;17.92;;;10.18;;
51578;SDS011;47998;53.242;6.386;2023-07-24T02:19:05;20.25;;;10.35;;
51578;SDS011;47998;53.242;6.386;2023-07-24T02:21:31;17.38;;;10.10;;
51578;SDS011;47998;53.242;6.386;2023-07-24T02:23:57;20.52;;;10.95;;
51578;SDS011;47998;53.242;6.386;2023-07-24T02:26:23;19.85;;;11.43;;
51578;SDS011;47998;53.242;6.386;2023-07-24T02:28:48;20.48;;;12.63;;
51578;SDS011;47998;53.242;6.386;2023-07-24T02:31:14;21.10;;;12.35;;
51578;SDS011;47998;53.242;6.386;2023-07-24T02:33:40;20.58;;;12.82;;
51578;SDS011;47998;53.242;6.386;2023-07-24T02:36:05;19.77;;;12.25;;
51578;SDS011;47998;53.242;6.386;2023-07-24T02:38:31;20.15;;;13.30;;
51578;SDS011;47998;53.242;6.386;2023-07-24T02:40:57;21.52;;;14.75;;
51578;SDS011;47998;53.242;6.386;2023-07-24T02:43:23;19.80;;;13.75;;
51578;SDS011;47998;53.242;6.386;2023-07-24T02:45:48;22.15;;;14.55;;
51578;SDS011;47998;53.242;6.386;2023-07-24T02:48:16;24.13;;;15.07;;
51578;SDS011;47998;53.242;6.386;2023-07-24T02:50:45;20.50;;;14.13;;
51578;SDS011;47998;53.242;6.386;2023-07-24T02:53:12;23.38;;;15.27;;
51578;SDS011;47998;53.242;6.386;2023-07-24T02:55:41;19.70;;;14.95;;
51578;SDS011;47998;53.242;6.386;2023-07-24T02:58:08;18.52;;;14.20;;
51578;SDS011;47998;53.242;6.386;2023-07-24T03:00:34;22.60;;;15.00;;
51578;SDS011;47998;53.242;6.386;2023-07-24T03:03:02;23.40;;;15.20;;
51578;SDS011;47998;53.242;6.386;2023-07-24T03:05:28;28.88;;;15.35;;
51578;SDS011;47998;53.242;6.386;2023-07-24T03:07:54;24.92;;;14.73;;
51578;SDS011;47998;53.242;6.386;2023-07-24T03:10:23;22.67;;;13.80;;
51578;SDS011;47998;53.242;6.386;2023-07-24T03:12:50;23.45;;;14.23;;
51578;SDS011;47998;53.242;6.386;2023-07-24T03:15:16;22.23;;;14.00;;
51578;SDS011;47998;53.242;6.386;2023-07-24T03:17:43;23.10;;;14.77;;
51578;SDS011;47998;53.242;6.386;2023-07-24T03:20:09;19.73;;;13.18;;
51578;SDS011;47998;53.242;6.386;2023-07-24T03:22:40;21.60;;;13.05;;
51578;SDS011;47998;53.242;6.386;2023-07-24T03:25:09;19.55;;;11.98;;
51578;SDS011;47998;53.242;6.386;2023-07-24T03:27:35;18.70;;;11.63;;
51578;SDS011;47998;53.242;6.386;2023-07-24T03:30:01;21.05;;;11.73;;
51578;SDS011;47998;53.242;6.386;2023-07-24T03:32:26;15.13;;;10.38;;
51578;SDS011;47998;53.242;6.386;2023-07-24T03:34:52;18.23;;;10.80;;
51578;SDS011;47998;53.242;6.386;2023-07-24T03:37:18;14.98;;;10.70;;
51578;SDS011;47998;53.242;6.386;2023-07-24T03:39:44;18.05;;;10.98;;
51578;SDS011;47998;53.242;6.386;2023-07-24T03:42:10;16.25;;;10.70;;
51578;SDS011;47998;53.242;6.386;2023-07-24T03:44:39;19.83;;;11.48;;
51578;SDS011;47998;53.242;6.386;2023-07-24T03:47:05;17.77;;;11.93;;
51578;SDS011;47998;53.242;6.386;2023-07-24T03:49:31;17.45;;;10.93;;
51578;SDS011;47998;53.242;6.386;2023-07-24T03:51:57;19.08;;;11.02;;
51578;SDS011;47998;53.242;6.386;2023-07-24T03:54:23;16.02;;;9.90;;
51578;SDS011;47998;53.242;6.386;2023-07-24T03:56:48;13.55;;;10.10;;
51578;SDS011;47998;53.242;6.386;2023-07-24T03:59:14;16.25;;;10.65;;
51578;SDS011;47998;53.242;6.386;2023-07-24T04:01:40;19.05;;;10.50;;
51578;SDS011;47998;53.242;6.386;2023-07-24T04:04:05;15.38;;;10.18;;
51578;SDS011;47998;53.242;6.386;2023-07-24T04:06:31;16.02;;;9.85;;
51578;SDS011;47998;53.242;6.386;2023-07-24T04:08:57;15.43;;;10.63;;
51578;SDS011;47998;53.242;6.386;2023-07-24T04:11:22;14.77;;;9.80;;
51578;SDS011;47998;53.242;6.386;2023-07-24T04:13:50;16.70;;;9.50;;
51578;SDS011;47998;53.242;6.386;2023-07-24T04:16:18;15.20;;;9.07;;
51578;SDS011;47998;53.242;6.386;2023-07-24T04:18:44;12.40;;;8.38;;
51578;SDS011;47998;53.242;6.386;2023-07-24T04:21:09;13.95;;;8.57;;
51578;SDS011;47998;53.242;6.386;2023-07-24T04:23:35;18.95;;;9.30;;
51578;SDS011;47998;53.242;6.386;2023-07-24T04:26:01;16.52;;;9.43;;
51578;SDS011;47998;53.242;6.386;2023-07-24T04:28:27;16.77;;;9.18;;
51578;SDS011;47998;53.242;6.386;2023-07-24T04:30:52;16.33;;;9.40;;
51578;SDS011;47998;53.242;6.386;2023-07-24T04:33:18;18.35;;;8.90;;
51578;SDS011;47998;53.242;6.386;2023-07-24T04:35:47;14.35;;;9.02;;
51578;SDS011;47998;53.242;6.386;2023-07-24T04:38:14;15.75;;;8.60;;
51578;SDS011;47998;53.242;6.386;2023-07-24T04:40:39;14.18;;;8.35;;
51578;SDS011;47998;53.242;6.386;2023-07-24T04:43:08;13.18;;;7.70;;
51578;SDS011;47998;53.242;6.386;2023-07-24T04:45:34;15.07;;;9.18;;
51578;SDS011;47998;53.242;6.386;2023-07-24T04:47:59;13.07;;;9.07;;
51578;SDS011;47998;53.242;6.386;2023-07-24T04:50:25;17.30;;;8.88;;
51578;SDS011;47998;53.242;6.386;2023-07-24T04:52:51;20.25;;;9.85;;
51578;SDS011;47998;53.242;6.386;2023-07-24T04:55:16;14.95;;;9.73;;
51578;SDS011;47998;53.242;6.386;2023-07-24T04:57:42;11.07;;;8.50;;
51578;SDS011;47998;53.242;6.386;2023-07-24T05:00:08;12.25;;;9.70;;
51578;SDS011;47998;53.242;6.386;2023-07-24T05:02:34;14.60;;;10.13;;
51578;SDS011;47998;53.242;6.386;2023-07-24T05:05:00;14.55;;;10.48;;
51578;SDS011;47998;53.242;6.386;2023-07-24T05:07:25;13.88;;;9.88;;
51578;SDS011;47998;53.242;6.386;2023-07-24T05:09:51;14.85;;;10.25;;
51578;SDS011;47998;53.242;6.386;2023-07-24T05:12:17;13.80;;;9.90;;
51578;SDS011;47998;53.242;6.386;2023-07-24T05:14:42;16.02;;;10.27;;
51578;SDS011;47998;53.242;6.386;2023-07-24T05:17:08;12.57;;;9.73;;
51578;SDS011;47998;53.242;6.386;2023-07-24T05:19:34;14.07;;;10.15;;
51578;SDS011;47998;53.242;6.386;2023-07-24T05:21:59;13.70;;;10.02;;
51578;SDS011;47998;53.242;6.386;2023-07-24T05:24:25;16.45;;;10.45;;
51578;SDS011;47998;53.242;6.386;2023-07-24T05:26:51;17.83;;;11.07;;
51578;SDS011;47998;53.242;6.386;2023-07-24T05:29:16;13.77;;;10.77;;
51578;SDS011;47998;53.242;6.386;2023-07-24T05:31:42;14.18;;;10.52;;
51578;SDS011;47998;53.242;6.386;2023-07-24T05:34:08;14.10;;;11.50;;
51578;SDS011;47998;53.242;6.386;2023-07-24T05:36:34;14.38;;;10.43;;
51578;SDS011;47998;53.242;6.386;2023-07-24T05:38:59;13.18;;;10.43;;
51578;SDS011;47998;53.242;6.386;2023-07-24T05:41:25;15.45;;;11.80;;
51578;SDS011;47998;53.242;6.386;2023-07-24T05:43:51;14.93;;;11.63;;
51578;SDS011;47998;53.242;6.386;2023-07-24T05:46:16;13.85;;;11.38;;
51578;SDS011;47998;53.242;6.386;2023-07-24T05:48:42;16.50;;;12.02;;
51578;SDS011;47998;53.242;6.386;2023-07-24T05:51:08;15.95;;;12.18;;
51578;SDS011;47998;53.242;6.386;2023-07-24T05:53:33;15.52;;;11.32;;
51578;SDS011;47998;53.242;6.386;2023-07-24T05:56:00;16.45;;;12.20;;
51578;SDS011;47998;53.242;6.386;2023-07-24T05:58:26;17.20;;;12.80;;
51578;SDS011;47998;53.242;6.386;2023-07-24T06:00:52;16.17;;;11.70;;
51578;SDS011;47998;53.242;6.386;2023-07-24T06:03:19;16.75;;;11.77;;
51578;SDS011;47998;53.242;6.386;2023-07-24T06:05:45;16.92;;;11.95;;
51578;SDS011;47998;53.242;6.386;2023-07-24T06:08:11;15.13;;;11.85;;
51578;SDS011;47998;53.242;6.386;2023-07-24T06:10:37;17.95;;;12.25;;
51578;SDS011;47998;53.242;6.386;2023-07-24T06:13:03;20.42;;;12.02;;
51578;SDS011;47998;53.242;6.386;2023-07-24T06:15:28;18.20;;;12.45;;
51578;SDS011;47998;53.242;6.386;2023-07-24T06:17:54;18.00;;;11.93;;
51578;SDS011;47998;53.242;6.386;2023-07-24T06:20:20;18.30;;;11.65;;
51578;SDS011;47998;53.242;6.386;2023-07-24T06:22:45;15.32;;;11.32;;
51578;SDS011;47998;53.242;6.386;2023-07-24T06:25:11;21.00;;;12.40;;
51578;SDS011;47998;53.242;6.386;2023-07-24T06:27:37;13.65;;;11.77;;
51578;SDS011;47998;53.242;6.386;2023-07-24T06:30:03;16.80;;;11.43;;
51578;SDS011;47998;53.242;6.386;2023-07-24T06:32:29;13.15;;;11.80;;
51578;SDS011;47998;53.242;6.386;2023-07-24T06:34:55;18.67;;;11.95;;
51578;SDS011;47998;53.242;6.386;2023-07-24T06:37:21;16.58;;;11.13;;
51578;SDS011;47998;53.242;6.386;2023-07-24T06:39:49;19.75;;;11.68;;
51578;SDS011;47998;53.242;6.386;2023-07-24T06:42:14;13.63;;;10.57;;
51578;SDS011;47998;53.242;6.386;2023-07-24T06:44:40;18.10;;;10.77;;
51578;SDS011;47998;53.242;6.386;2023-07-24T06:47:06;15.32;;;10.55;;
51578;SDS011;47998;53.242;6.386;2023-07-24T06:49:31;19.30;;;11.23;;
51578;SDS011;47998;53.242;6.386;2023-07-24T06:51:57;16.00;;;10.25;;
51578;SDS011;47998;53.242;6.386;2023-07-24T06:54:23;18.52;;;11.07;;
51578;SDS011;47998;53.242;6.386;2023-07-24T06:56:48;15.13;;;9.80;;
51578;SDS011;47998;53.242;6.386;2023-07-24T06:59:14;16.27;;;10.25;;
51578;SDS011;47998;53.242;6.386;2023-07-24T07:01:40;15.98;;;9.82;;
51578;SDS011;47998;53.242;6.386;2023-07-24T07:04:05;15.23;;;9.32;;
51578;SDS011;47998;53.242;6.386;2023-07-24T07:06:31;14.82;;;9.43;;
51578;SDS011;47998;53.242;6.386;2023-07-24T07:08:57;16.35;;;9.07;;
51578;SDS011;47998;53.242;6.386;2023-07-24T07:11:23;15.70;;;9.10;;
51578;SDS011;47998;53.242;6.386;2023-07-24T07:13:48;14.40;;;9.10;;
51578;SDS011;47998;53.242;6.386;2023-07-24T07:16:14;14.23;;;9.38;;
51578;SDS011;47998;53.242;6.386;2023-07-24T07:18:41;16.17;;;9.80;;
51578;SDS011;47998;53.242;6.386;2023-07-24T07:21:07;17.60;;;9.85;;
51578;SDS011;47998;53.242;6.386;2023-07-24T07:23:33;13.40;;;9.68;;
51578;SDS011;47998;53.242;6.386;2023-07-24T07:25:58;15.30;;;9.75;;
51578;SDS011;47998;53.242;6.386;2023-07-24T07:28:24;16.85;;;9.27;;
51578;SDS011;47998;53.242;6.386;2023-07-24T07:30:50;12.88;;;8.68;;
51578;SDS011;47998;53.242;6.386;2023-07-24T07:33:16;17.90;;;8.80;;
51578;SDS011;47998;53.242;6.386;2023-07-24T07:35:42;14.60;;;9.20;;
51578;SDS011;47998;53.242;6.386;2023-07-24T07:38:08;15.30;;;9.05;;
51578;SDS011;47998;53.242;6.386;2023-07-24T07:40:33;19.80;;;9.70;;
51578;SDS011;47998;53.242;6.386;2023-07-24T07:43:03;13.85;;;8.57;;
51578;SDS011;47998;53.242;6.386;2023-07-24T07:45:28;17.25;;;8.50;;
51578;SDS011;47998;53.242;6.386;2023-07-24T07:47:54;15.32;;;8.43;;
51578;SDS011;47998;53.242;6.386;2023-07-24T07:50:20;12.13;;;7.40;;
51578;SDS011;47998;53.242;6.386;2023-07-24T07:52:48;16.63;;;8.20;;
51578;SDS011;47998;53.242;6.386;2023-07-24T07:55:15;14.65;;;8.30;;
51578;SDS011;47998;53.242;6.386;2023-07-24T07:57:41;12.77;;;7.40;;
51578;SDS011;47998;53.242;6.386;2023-07-24T08:00:07;15.43;;;8.60;;
51578;SDS011;47998;53.242;6.386;2023-07-24T08:02:33;14.00;;;8.30;;
51578;SDS011;47998;53.242;6.386;2023-07-24T08:04:59;13.32;;;7.82;;
51578;SDS011;47998;53.242;6.386;2023-07-24T08:07:25;14.20;;;8.40;;
51578;SDS011;47998;53.242;6.386;2023-07-24T08:09:51;16.27;;;7.07;;
51578;SDS011;47998;53.242;6.386;2023-07-24T08:12:16;13.50;;;7.43;;
51578;SDS011;47998;53.242;6.386;2023-07-24T08:14:42;16.98;;;8.43;;
51578;SDS011;47998;53.242;6.386;2023-07-24T08:17:08;10.90;;;6.70;;
51578;SDS011;47998;53.242;6.386;2023-07-24T08:19:33;14.32;;;6.50;;
51578;SDS011;47998;53.242;6.386;2023-07-24T08:22:02;16.92;;;7.15;;
51578;SDS011;47998;53.242;6.386;2023-07-24T08:24:30;18.38;;;7.70;;
51578;SDS011;47998;53.242;6.386;2023-07-24T08:26:58;16.80;;;8.65;;
51578;SDS011;47998;53.242;6.386;2023-07-24T08:29:26;15.25;;;6.93;;
51578;SDS011;47998;53.242;6.386;2023-07-24T08:31:54;17.58;;;7.78;;
51578;SDS011;47998;53.242;6.386;2023-07-24T08:34:20;14.23;;;7.43;;
51578;SDS011;47998;53.242;6.386;2023-07-24T08:36:46;12.40;;;7.00;;
51578;SDS011;47998;53.242;6.386;2023-07-24T08:39:12;13.32;;;7.57;;
51578;SDS011;47998;53.242;6.386;2023-07-24T08:41:37;14.20;;;8.13;;
51578;SDS011;47998;53.242;6.386;2023-07-24T08:44:03;13.82;;;6.38;;
51578;SDS011;47998;53.242;6.386;2023-07-24T08:46:36;15.35;;;7.43;;
51578;SDS011;47998;53.242;6.386;2023-07-24T08:49:12;14.93;;;6.93;;
51578;SDS011;47998;53.242;6.386;2023-07-24T08:51:40;15.13;;;7.57;;
51578;SDS011;47998;53.242;6.386;2023-07-24T08:54:07;15.35;;;7.88;;
51578;SDS011;47998;53.242;6.386;2023-07-24T08:56:36;15.43;;;7.55;;
51578;SDS011;47998;53.242;6.386;2023-07-24T08:59:05;15.73;;;8.05;;
51578;SDS011;47998;53.242;6.386;2023-07-24T09:01:31;13.68;;;7.55;;
51578;SDS011;47998;53.242;6.386;2023-07-24T09:03:57;11.65;;;7.93;;
51578;SDS011;47998;53.242;6.386;2023-07-24T09:06:25;11.48;;;6.82;;
51578;SDS011;47998;53.242;6.386;2023-07-24T09:08:54;14.30;;;7.38;;
51578;SDS011;47998;53.242;6.386;2023-07-24T09:11:20;13.93;;;6.72;;
51578;SDS011;47998;53.242;6.386;2023-07-24T09:13:48;17.25;;;8.48;;
51578;SDS011;47998;53.242;6.386;2023-07-24T09:16:22;13.65;;;7.53;;
51578;SDS011;47998;53.242;6.386;2023-07-24T09:18:48;13.15;;;7.10;;
51578;SDS011;47998;53.242;6.386;2023-07-24T09:21:26;11.32;;;6.60;;
51578;SDS011;47998;53.242;6.386;2023-07-24T09:23:55;11.25;;;5.72;;
51578;SDS011;47998;53.242;6.386;2023-07-24T09:26:23;11.13;;;5.90;;
51578;SDS011;47998;53.242;6.386;2023-07-24T09:28:54;10.00;;;5.50;;
51578;SDS011;47998;53.242;6.386;2023-07-24T09:31:22;10.55;;;5.90;;
51578;SDS011;47998;53.242;6.386;2023-07-24T09:34:01;10.75;;;6.03;;
51578;SDS011;47998;53.242;6.386;2023-07-24T09:36:36;17.52;;;7.15;;
51578;SDS011;47998;53.242;6.386;2023-07-24T09:39:05;8.77;;;4.90;;
51578;SDS011;47998;53.242;6.386;2023-07-24T09:41:35;11.98;;;6.32;;
51578;SDS011;47998;53.242;6.386;2023-07-24T09:44:01;8.93;;;5.47;;
51578;SDS011;47998;53.242;6.386;2023-07-24T09:46:30;9.35;;;5.28;;
51578;SDS011;47998;53.242;6.386;2023-07-24T09:48:57;9.95;;;5.00;;
51578;SDS011;47998;53.242;6.386;2023-07-24T09:51:24;12.48;;;5.45;;
51578;SDS011;47998;53.242;6.386;2023-07-24T09:56:23;11.90;;;5.00;;
51578;SDS011;47998;53.242;6.386;2023-07-24T09:58:52;9.38;;;5.07;;
51578;SDS011;47998;53.242;6.386;2023-07-24T10:01:21;9.68;;;4.90;;
51578;SDS011;47998;53.242;6.386;2023-07-24T10:03:50;9.25;;;6.00;;
51578;SDS011;47998;53.242;6.386;2023-07-24T10:06:19;9.48;;;5.82;;
51578;SDS011;47998;53.242;6.386;2023-07-24T10:08:48;9.23;;;4.20;;
51578;SDS011;47998;53.242;6.386;2023-07-24T10:11:14;7.13;;;3.00;;
51578;SDS011;47998;53.242;6.386;2023-07-24T10:13:40;6.75;;;3.35;;
51578;SDS011;47998;53.242;6.386;2023-07-24T10:16:07;8.30;;;3.33;;
51578;SDS011;47998;53.242;6.386;2023-07-24T10:18:41;9.80;;;4.57;;
51578;SDS011;47998;53.242;6.386;2023-07-24T10:21:11;6.90;;;4.65;;
51578;SDS011;47998;53.242;6.386;2023-07-24T10:23:42;13.00;;;5.47;;
51578;SDS011;47998;53.242;6.386;2023-07-24T10:26:11;4.25;;;2.58;;
51578;SDS011;47998;53.242;6.386;2023-07-24T10:28:38;7.63;;;2.28;;
51578;SDS011;47998;53.242;6.386;2023-07-24T10:31:07;3.45;;;1.90;;
51578;SDS011;47998;53.242;6.386;2023-07-24T10:33:59;3.13;;;2.08;;
51578;SDS011;47998;53.242;6.386;2023-07-24T10:36:32;5.85;;;3.20;;
51578;SDS011;47998;53.242;6.386;2023-07-24T10:39:00;4.13;;;2.83;;
51578;SDS011;47998;53.242;6.386;2023-07-24T10:41:40;5.65;;;3.45;;
51578;SDS011;47998;53.242;6.386;2023-07-24T10:44:06;5.95;;;3.75;;
51578;SDS011;47998;53.242;6.386;2023-07-24T10:46:39;8.32;;;6.15;;
51578;SDS011;47998;53.242;6.386;2023-07-24T10:49:08;10.07;;;6.13;;
51578;SDS011;47998;53.242;6.386;2023-07-24T10:51:34;10.45;;;8.55;;
51578;SDS011;47998;53.242;6.386;2023-07-24T10:54:02;10.20;;;7.40;;
51578;SDS011;47998;53.242;6.386;2023-07-24T10:56:29;12.70;;;7.65;;
51578;SDS011;47998;53.242;6.386;2023-07-24T10:58:55;12.55;;;7.72;;
51578;SDS011;47998;53.242;6.386;2023-07-24T11:01:21;13.02;;;9.23;;
51578;SDS011;47998;53.242;6.386;2023-07-24T11:03:48;12.73;;;9.13;;
51578;SDS011;47998;53.242;6.386;2023-07-24T11:06:15;9.75;;;7.57;;
51578;SDS011;47998;53.242;6.386;2023-07-24T11:08:52;10.95;;;7.97;;
51578;SDS011;47998;53.242;6.386;2023-07-24T11:11:21;8.52;;;6.70;;
51578;SDS011;47998;53.242;6.386;2023-07-24T11:13:47;11.65;;;8.00;;
51578;SDS011;47998;53.242;6.386;2023-07-24T11:16:13;11.82;;;7.43;;
51578;SDS011;47998;53.242;6.386;2023-07-24T11:18:45;9.45;;;6.95;;
51578;SDS011;47998;53.242;6.386;2023-07-24T11:21:12;11.38;;;7.78;;
51578;SDS011;47998;53.242;6.386;2023-07-24T11:23:48;10.40;;;5.80;;
51578;SDS011;47998;53.242;6.386;2023-07-24T11:26:15;10.75;;;7.82;;
51578;SDS011;47998;53.242;6.386;2023-07-24T11:28:43;10.18;;;7.85;;
51578;SDS011;47998;53.242;6.386;2023-07-24T11:31:09;21.48;;;7.88;;
51578;SDS011;47998;53.242;6.386;2023-07-24T11:33:35;7.95;;;6.30;;
51578;SDS011;47998;53.242;6.386;2023-07-24T11:36:05;8.82;;;6.85;;
51578;SDS011;47998;53.242;6.386;2023-07-24T11:38:31;11.52;;;8.13;;
51578;SDS011;47998;53.242;6.386;2023-07-24T11:40:57;10.48;;;6.63;;
51578;SDS011;47998;53.242;6.386;2023-07-24T11:43:23;7.22;;;5.82;;
51578;SDS011;47998;53.242;6.386;2023-07-24T11:45:53;12.95;;;5.47;;
51578;SDS011;47998;53.242;6.386;2023-07-24T11:48:19;11.80;;;6.30;;
51578;SDS011;47998;53.242;6.386;2023-07-24T11:53:20;8.73;;;5.85;;
51578;SDS011;47998;53.242;6.386;2023-07-24T11:55:51;7.65;;;5.72;;
51578;SDS011;47998;53.242;6.386;2023-07-24T11:58:19;8.70;;;5.50;;
51578;SDS011;47998;53.242;6.386;2023-07-24T12:00:49;8.40;;;4.80;;
51578;SDS011;47998;53.242;6.386;2023-07-24T12:03:35;7.95;;;5.80;;
51578;SDS011;47998;53.242;6.386;2023-07-24T12:06:01;8.02;;;5.50;;
51578;SDS011;47998;53.242;6.386;2023-07-24T12:08:31;8.27;;;5.68;;
51578;SDS011;47998;53.242;6.386;2023-07-24T12:10:59;7.60;;;5.10;;
51578;SDS011;47998;53.242;6.386;2023-07-24T12:13:25;6.15;;;4.53;;
51578;SDS011;47998;53.242;6.386;2023-07-24T12:15:50;7.97;;;5.65;;
51578;SDS011;47998;53.242;6.386;2023-07-24T12:18:16;9.18;;;5.75;;
51578;SDS011;47998;53.242;6.386;2023-07-24T12:20:42;7.07;;;4.85;;
51578;SDS011;47998;53.242;6.386;2023-07-24T12:23:08;6.55;;;4.45;;
51578;SDS011;47998;53.242;6.386;2023-07-24T12:25:33;7.53;;;5.40;;
51578;SDS011;47998;53.242;6.386;2023-07-24T12:27:59;5.30;;;4.32;;
51578;SDS011;47998;53.242;6.386;2023-07-24T12:30:25;6.00;;;4.80;;
51578;SDS011;47998;53.242;6.386;2023-07-24T12:32:51;6.22;;;4.40;;
51578;SDS011;47998;53.242;6.386;2023-07-24T12:35:17;6.15;;;4.82;;
51578;SDS011;47998;53.242;6.386;2023-07-24T12:37:43;6.45;;;4.63;;
51578;SDS011;47998;53.242;6.386;2023-07-24T12:40:14;5.60;;;4.57;;
51578;SDS011;47998;53.242;6.386;2023-07-24T12:42:39;5.88;;;4.72;;
51578;SDS011;47998;53.242;6.386;2023-07-24T12:45:05;4.63;;;4.03;;
51578;SDS011;47998;53.242;6.386;2023-07-24T12:47:32;3.75;;;3.17;;
51578;SDS011;47998;53.242;6.386;2023-07-24T12:49:57;3.92;;;3.08;;
51578;SDS011;47998;53.242;6.386;2023-07-24T12:52:24;3.88;;;2.70;;
51578;SDS011;47998;53.242;6.386;2023-07-24T12:54:54;3.53;;;2.70;;
51578;SDS011;47998;53.242;6.386;2023-07-24T12:57:19;3.72;;;2.55;;
51578;SDS011;47998;53.242;6.386;2023-07-24T12:59:45;6.00;;;2.53;;
51578;SDS011;47998;53.242;6.386;2023-07-24T13:02:11;3.67;;;2.17;;
51578;SDS011;47998;53.242;6.386;2023-07-24T13:04:36;4.43;;;2.00;;
51578;SDS011;47998;53.242;6.386;2023-07-24T13:07:07;2.10;;;1.42;;
51578;SDS011;47998;53.242;6.386;2023-07-24T13:09:35;3.70;;;1.67;;
51578;SDS011;47998;53.242;6.386;2023-07-24T13:12:01;4.55;;;0.98;;
51578;SDS011;47998;53.242;6.386;2023-07-24T13:14:27;3.95;;;1.77;;
51578;SDS011;47998;53.242;6.386;2023-07-24T13:16:53;2.25;;;0.88;;
51578;SDS011;47998;53.242;6.386;2023-07-24T13:19:18;3.42;;;0.85;;
51578;SDS011;47998;53.242;6.386;2023-07-24T13:21:44;2.25;;;1.20;;
51578;SDS011;47998;53.242;6.386;2023-07-24T13:24:12;4.20;;;1.50;;
51578;SDS011;47998;53.242;6.386;2023-07-24T13:26:37;6.22;;;1.45;;
51578;SDS011;47998;53.242;6.386;2023-07-24T13:29:03;4.93;;;1.48;;
51578;SDS011;47998;53.242;6.386;2023-07-24T13:31:29;5.35;;;1.33;;
51578;SDS011;47998;53.242;6.386;2023-07-24T13:33:59;5.10;;;1.27;;
51578;SDS011;47998;53.242;6.386;2023-07-24T13:36:29;4.78;;;1.25;;
51578;SDS011;47998;53.242;6.386;2023-07-24T13:38:55;5.50;;;1.38;;
51578;SDS011;47998;53.242;6.386;2023-07-24T13:41:21;5.07;;;1.70;;
51578;SDS011;47998;53.242;6.386;2023-07-24T13:43:47;3.78;;;1.40;;
51578;SDS011;47998;53.242;6.386;2023-07-24T13:46:12;6.22;;;1.50;;
51578;SDS011;47998;53.242;6.386;2023-07-24T13:48:38;7.15;;;1.60;;
51578;SDS011;47998;53.242;6.386;2023-07-24T13:51:04;4.82;;;2.03;;
51578;SDS011;47998;53.242;6.386;2023-07-24T13:53:29;6.43;;;1.52;;
51578;SDS011;47998;53.242;6.386;2023-07-24T13:55:55;3.47;;;1.17;;
51578;SDS011;47998;53.242;6.386;2023-07-24T13:58:21;5.47;;;1.48;;
51578;SDS011;47998;53.242;6.386;2023-07-24T14:00:47;6.90;;;1.58;;
51578;SDS011;47998;53.242;6.386;2023-07-24T14:03:12;10.10;;;2.92;;
51578;SDS011;47998;53.242;6.386;2023-07-24T14:05:38;7.60;;;1.85;;
51578;SDS011;47998;53.242;6.386;2023-07-24T14:08:04;12.35;;;2.28;;
51578;SDS011;47998;53.242;6.386;2023-07-24T14:10:30;7.45;;;2.15;;
51578;SDS011;47998;53.242;6.386;2023-07-24T14:12:56;10.40;;;1.85;;
51578;SDS011;47998;53.242;6.386;2023-07-24T14:15:22;7.25;;;2.28;;
51578;SDS011;47998;53.242;6.386;2023-07-24T14:17:48;9.88;;;2.90;;
51578;SDS011;47998;53.242;6.386;2023-07-24T14:20:14;11.88;;;1.75;;
51578;SDS011;47998;53.242;6.386;2023-07-24T14:22:40;11.95;;;4.20;;
51578;SDS011;47998;53.242;6.386;2023-07-24T14:25:06;9.50;;;1.92;;
51578;SDS011;47998;53.242;6.386;2023-07-24T14:27:32;8.68;;;1.90;;
51578;SDS011;47998;53.242;6.386;2023-07-24T14:29:58;5.57;;;1.85;;
51578;SDS011;47998;53.242;6.386;2023-07-24T14:32:24;5.32;;;1.58;;
51578;SDS011;47998;53.242;6.386;2023-07-24T14:34:50;7.05;;;1.75;;
51578;SDS011;47998;53.242;6.386;2023-07-24T14:37:17;4.97;;;1.13;;
51578;SDS011;47998;53.242;6.386;2023-07-24T14:39:43;9.25;;;1.38;;